createdAt,value
2023-05-08T00:00:56.664Z,37.57
2023-05-08T00:03:24.031Z,39.13
2023-05-08T00:05:50.584Z,39.03
2023-05-08T00:08:17.023Z,39.40
2023-05-08T00:10:43.425Z,36.43
2023-05-08T00:13:09.915Z,33.13
2023-05-08T00:15:36.517Z,35.20
2023-05-08T00:18:03.032Z,34.87
2023-05-08T00:20:29.616Z,38.00
2023-05-08T00:22:57.820Z,32.03
2023-05-08T00:25:24.315Z,36.30
2023-05-08T00:27:50.800Z,30.47
2023-05-08T00:30:17.566Z,31.97
2023-05-08T00:32:44.139Z,34.30
2023-05-08T00:35:10.786Z,34.13
2023-05-08T00:37:40.672Z,37.03
2023-05-08T00:40:09.123Z,31.87
2023-05-08T00:42:35.655Z,38.10
2023-05-08T00:45:03.201Z,36.13
2023-05-08T00:47:31.653Z,33.20
2023-05-08T00:49:59.255Z,33.43
2023-05-08T00:52:29.660Z,36.70
2023-05-08T00:54:56.557Z,37.27
2023-05-08T00:57:24.392Z,38.07
2023-05-08T00:59:52.663Z,35.83
2023-05-08T01:02:20.945Z,31.83
2023-05-08T01:04:48.384Z,31.20
2023-05-08T01:07:14.844Z,31.57
2023-05-08T01:09:42.377Z,32.87
2023-05-08T01:12:47.538Z,32.80
2023-05-08T01:15:41.225Z,34.53
2023-05-08T01:18:13.323Z,30.23
2023-05-08T01:21:05.534Z,33.10
2023-05-08T01:24:09.628Z,29.97
2023-05-08T01:26:59.302Z,30.80
2023-05-08T01:30:03.465Z,32.67
2023-05-08T01:32:39.086Z,28.57
2023-05-08T01:35:27.276Z,30.73
2023-05-08T01:38:18.611Z,32.90
2023-05-08T01:40:53.626Z,29.80
2023-05-08T01:43:38.715Z,31.40
2023-05-08T01:46:12.496Z,33.13
2023-05-08T01:48:56.338Z,29.20
2023-05-08T01:51:25.464Z,33.07
2023-05-08T01:53:57.943Z,34.90
2023-05-08T01:56:27.128Z,33.47
2023-05-08T01:58:55.800Z,33.47
2023-05-08T02:01:25.780Z,34.57
2023-05-08T02:03:54.500Z,32.87
2023-05-08T02:06:22.701Z,38.40
2023-05-08T02:08:51.485Z,33.57
2023-05-08T02:11:18.725Z,35.23
2023-05-08T02:13:48.083Z,31.20
2023-05-08T02:16:15.698Z,37.37
2023-05-08T02:18:51.165Z,35.00
2023-05-08T02:21:18.773Z,32.30
2023-05-08T02:23:47.014Z,32.53
2023-05-08T02:26:15.920Z,36.73
2023-05-08T02:28:42.925Z,32.73
2023-05-08T02:31:12.113Z,33.17
2023-05-08T02:33:41.627Z,39.37
2023-05-08T02:36:08.997Z,35.47
2023-05-08T02:38:38.091Z,32.53
2023-05-08T02:41:06.590Z,35.10
2023-05-08T02:43:33.257Z,33.13
2023-05-08T02:46:20.036Z,36.53
2023-05-08T02:48:59.616Z,31.63
2023-05-08T02:51:48.267Z,37.87
2023-05-08T02:54:21.825Z,34.87
2023-05-08T02:56:58.181Z,36.00
2023-05-08T02:59:30.071Z,31.23
2023-05-08T03:02:09.400Z,32.70
2023-05-08T03:04:40.329Z,34.67
2023-05-08T03:07:07.046Z,31.40
2023-05-08T03:09:47.295Z,34.70
2023-05-08T03:12:17.048Z,35.90
2023-05-08T03:14:52.904Z,38.23
2023-05-08T03:17:22.840Z,31.27
2023-05-08T03:19:55.100Z,29.63
2023-05-08T03:22:22.810Z,35.93
2023-05-08T03:24:51.300Z,35.67
2023-05-08T03:27:18.194Z,34.50
2023-05-08T03:29:46.015Z,34.93
2023-05-08T03:32:14.077Z,37.30
2023-05-08T03:34:41.051Z,36.47
2023-05-08T03:37:07.686Z,35.80
2023-05-08T03:39:34.185Z,37.60
2023-05-08T03:42:00.827Z,47.53
2023-05-08T03:44:28.573Z,41.73
2023-05-08T03:46:58.538Z,48.30
2023-05-08T03:49:26.496Z,46.20
2023-05-08T03:51:56.828Z,42.90
2023-05-08T03:54:25.569Z,43.47
2023-05-08T03:56:53.820Z,36.57
2023-05-08T03:59:28.895Z,39.80
2023-05-08T04:02:01.520Z,40.60
2023-05-08T04:04:33.677Z,36.97
2023-05-08T04:07:10.494Z,37.60
2023-05-08T04:09:51.614Z,51.67
2023-05-08T04:12:21.931Z,46.10
2023-05-08T04:14:56.714Z,53.67
2023-05-08T04:17:34.854Z,49.57
2023-05-08T04:20:04.679Z,55.33
2023-05-08T04:22:33.674Z,42.87
2023-05-08T04:25:03.932Z,43.23
2023-05-08T04:27:31.299Z,41.27
2023-05-08T04:29:58.366Z,40.90
2023-05-08T04:32:26.154Z,40.73
2023-05-08T04:34:53.107Z,38.77
2023-05-08T04:37:26.866Z,41.57
2023-05-08T04:39:53.662Z,40.20
2023-05-08T04:42:20.854Z,43.17
2023-05-08T04:44:47.730Z,41.83
2023-05-08T04:47:14.677Z,46.77
2023-05-08T04:49:41.177Z,43.50
2023-05-08T04:52:07.890Z,41.93
2023-05-08T04:54:34.656Z,46.67
2023-05-08T04:57:01.333Z,40.63
2023-05-08T04:59:29.416Z,39.93
2023-05-08T05:01:56.864Z,39.57
2023-05-08T05:04:23.391Z,37.40
2023-05-08T05:06:49.933Z,37.73
2023-05-08T05:09:16.384Z,38.07
2023-05-08T05:11:42.913Z,41.30
2023-05-08T05:14:09.416Z,39.97
2023-05-08T05:16:36.039Z,36.50
2023-05-08T05:19:02.565Z,38.47
2023-05-08T05:21:28.969Z,38.40
2023-05-08T05:23:55.370Z,32.97
2023-05-08T05:26:22.095Z,33.37
2023-05-08T05:28:48.910Z,36.43
2023-05-08T05:31:15.451Z,32.87
2023-05-08T05:33:42.493Z,31.90
2023-05-08T05:36:10.006Z,34.30
2023-05-08T05:38:36.672Z,36.70
2023-05-08T05:41:03.441Z,33.70
2023-05-08T05:43:30.048Z,36.33
2023-05-08T05:45:56.492Z,36.13
2023-05-08T05:48:23.048Z,35.63
2023-05-08T05:50:49.443Z,39.43
2023-05-08T05:53:15.965Z,39.87
2023-05-08T05:55:42.410Z,43.07
2023-05-08T05:58:09.019Z,40.37
2023-05-08T06:00:35.552Z,40.90
2023-05-08T06:03:02.863Z,35.73
2023-05-08T06:05:29.911Z,36.47
2023-05-08T06:07:57.216Z,37.80
2023-05-08T06:10:24.141Z,39.87
2023-05-08T06:12:50.652Z,39.90
2023-05-08T06:15:17.386Z,42.77
2023-05-08T06:17:43.912Z,43.87
2023-05-08T06:20:10.600Z,45.53
2023-05-08T06:22:40.275Z,45.57
2023-05-08T06:25:07.390Z,37.43
2023-05-08T06:27:37.006Z,41.23
2023-05-08T06:30:04.730Z,38.30
2023-05-08T06:32:31.343Z,39.83
2023-05-08T06:34:57.834Z,44.20
2023-05-08T06:37:24.361Z,41.50
2023-05-08T06:40:00.270Z,40.07
2023-05-08T06:42:37.006Z,37.23
2023-05-08T06:45:04.362Z,41.23
2023-05-08T06:47:30.876Z,42.33
2023-05-08T06:49:57.342Z,40.07
2023-05-08T06:52:25.787Z,37.80
2023-05-08T06:54:52.419Z,45.73
2023-05-08T06:57:18.954Z,35.73
2023-05-08T06:59:45.387Z,44.00
2023-05-08T07:02:12.453Z,44.90
2023-05-08T07:04:39.162Z,37.30
2023-05-08T07:07:06.855Z,38.67
2023-05-08T07:09:33.468Z,38.27
2023-05-08T07:11:59.883Z,37.60
2023-05-08T07:14:27.553Z,37.80
2023-05-08T07:16:54.421Z,40.27
2023-05-08T07:19:22.556Z,34.63
2023-05-08T07:21:49.329Z,40.73
2023-05-08T07:24:15.852Z,32.13
2023-05-08T07:26:42.582Z,44.53
2023-05-08T07:29:09.029Z,37.60
2023-05-08T07:31:36.460Z,39.20
2023-05-08T07:34:03.120Z,49.13
2023-05-08T07:36:30.690Z,47.40
2023-05-08T07:38:57.292Z,43.43
2023-05-08T07:41:23.921Z,41.83
2023-05-08T07:43:50.455Z,46.97
2023-05-08T07:46:18.301Z,37.87
2023-05-08T07:48:44.873Z,39.87
2023-05-08T07:51:11.396Z,45.80
2023-05-08T07:53:37.800Z,41.67
2023-05-08T07:56:05.217Z,46.73
2023-05-08T07:58:31.748Z,35.80
2023-05-08T08:00:58.215Z,43.07
2023-05-08T08:03:24.757Z,37.43
2023-05-08T08:05:51.443Z,39.20
2023-05-08T08:08:17.985Z,45.07
2023-05-08T08:10:44.408Z,46.87
2023-05-08T08:13:10.826Z,35.10
2023-05-08T08:15:37.322Z,34.80
2023-05-08T08:18:03.900Z,39.93
2023-05-08T08:20:30.399Z,36.90
2023-05-08T08:22:56.795Z,34.87
2023-05-08T08:25:24.624Z,31.63
2023-05-08T08:27:51.428Z,34.53
2023-05-08T08:30:18.775Z,30.23
2023-05-08T08:32:46.192Z,32.63
2023-05-08T08:35:13.644Z,37.03
2023-05-08T08:37:40.374Z,36.37
2023-05-08T08:40:07.673Z,35.90
2023-05-08T08:42:34.203Z,36.90
2023-05-08T08:45:01.204Z,32.27
2023-05-08T08:47:29.750Z,31.83
2023-05-08T08:49:58.919Z,28.27
2023-05-08T08:52:47.288Z,33.47
2023-05-08T08:55:17.084Z,31.90
2023-05-08T08:57:52.890Z,36.10
2023-05-08T09:00:21.116Z,29.73
2023-05-08T09:02:47.791Z,32.43
2023-05-08T09:05:15.893Z,28.97
2023-05-08T09:07:43.847Z,32.83
2023-05-08T09:10:15.835Z,32.07
2023-05-08T09:12:42.609Z,26.90
2023-05-08T09:15:09.291Z,34.33
2023-05-08T09:17:35.832Z,28.50
2023-05-08T09:20:02.740Z,28.43
2023-05-08T09:22:30.351Z,31.77
2023-05-08T09:25:01.004Z,29.87
2023-05-08T09:27:28.807Z,34.67
2023-05-08T09:30:04.550Z,30.63
2023-05-08T09:32:32.367Z,27.53
2023-05-08T09:34:59.591Z,34.67
2023-05-08T09:37:26.919Z,30.97
2023-05-08T09:39:54.478Z,28.20
2023-05-08T09:42:21.359Z,31.63
2023-05-08T09:44:53.205Z,26.33
2023-05-08T09:47:22.225Z,28.93
2023-05-08T09:50:08.820Z,26.40
2023-05-08T09:52:37.317Z,24.23
2023-05-08T09:55:09.370Z,28.43
2023-05-08T09:57:39.211Z,25.37
2023-05-08T10:00:11.391Z,24.97
2023-05-08T10:02:53.654Z,22.97
2023-05-08T10:05:26.367Z,24.53
2023-05-08T10:07:53.521Z,24.97
2023-05-08T10:10:27.099Z,27.77
2023-05-08T10:12:55.662Z,27.40
2023-05-08T10:15:24.463Z,25.93
2023-05-08T10:17:58.780Z,21.93
2023-05-08T10:20:29.460Z,30.77
2023-05-08T10:22:57.222Z,25.43
2023-05-08T10:25:25.707Z,26.10
2023-05-08T10:28:16.306Z,22.30
2023-05-08T10:30:47.435Z,21.03
2023-05-08T10:33:25.732Z,22.67
2023-05-08T10:35:52.701Z,23.83
2023-05-08T10:38:19.647Z,21.67
2023-05-08T10:40:48.044Z,20.50
2023-05-08T10:43:14.721Z,23.10
2023-05-08T10:45:41.567Z,23.40
2023-05-08T10:48:27.282Z,21.67
2023-05-08T10:51:14.576Z,19.77
2023-05-08T10:53:55.327Z,22.50
2023-05-08T10:56:29.104Z,22.77
2023-05-08T10:58:57.568Z,24.23
2023-05-08T11:01:24.994Z,23.87
2023-05-08T11:03:52.556Z,20.37
2023-05-08T11:06:43.600Z,25.27
2023-05-08T11:09:15.094Z,20.93
2023-05-08T11:11:49.003Z,22.70
2023-05-08T11:14:17.063Z,18.90
2023-05-08T11:17:04.110Z,20.30
2023-05-08T11:19:30.741Z,23.27
2023-05-08T11:22:21.802Z,20.23
2023-05-08T11:24:57.100Z,27.03
2023-05-08T11:27:53.740Z,20.03
2023-05-08T11:30:36.823Z,23.57
2023-05-08T11:33:04.667Z,22.53
2023-05-08T11:35:42.655Z,21.43
2023-05-08T11:38:17.180Z,21.07
2023-05-08T11:40:54.240Z,23.57
2023-05-08T11:43:31.394Z,21.80
2023-05-08T11:46:01.457Z,23.37
2023-05-08T11:48:27.895Z,24.00
2023-05-08T11:50:54.421Z,23.33
2023-05-08T11:53:22.651Z,19.87
2023-05-08T11:55:52.766Z,21.87
2023-05-08T11:58:19.334Z,21.00
2023-05-08T12:00:47.106Z,23.70
2023-05-08T12:03:17.472Z,21.27
2023-05-08T12:05:44.771Z,19.23
2023-05-08T12:08:13.408Z,20.67
2023-05-08T12:11:00.174Z,20.80
2023-05-08T12:13:28.816Z,22.07
2023-05-08T12:15:58.473Z,22.13
2023-05-08T12:18:26.857Z,20.90
2023-05-08T12:20:54.197Z,22.47
2023-05-08T12:23:20.959Z,29.13
2023-05-08T12:25:47.600Z,21.40
2023-05-08T12:28:14.115Z,20.20
2023-05-08T12:30:41.245Z,15.83
2023-05-08T12:33:08.864Z,22.93
2023-05-08T12:35:37.343Z,22.10
2023-05-08T12:38:05.746Z,24.63
2023-05-08T12:40:42.708Z,22.20
2023-05-08T12:43:10.511Z,17.93
2023-05-08T12:45:39.516Z,22.73
2023-05-08T12:48:11.423Z,17.87
2023-05-08T12:50:40.534Z,23.30
2023-05-08T12:53:09.335Z,26.30
2023-05-08T12:55:37.468Z,18.73
2023-05-08T12:58:06.928Z,16.13
2023-05-08T13:00:42.672Z,19.67
2023-05-08T13:03:11.284Z,18.80
2023-05-08T13:05:42.202Z,18.50
2023-05-08T13:08:10.946Z,29.67
2023-05-08T13:10:54.480Z,27.67
2023-05-08T13:13:23.278Z,26.50
2023-05-08T13:15:51.155Z,24.77
2023-05-08T13:18:18.378Z,22.07
2023-05-08T13:20:45.007Z,34.70
2023-05-08T13:23:12.355Z,30.70
2023-05-08T13:25:40.458Z,24.87
2023-05-08T13:28:08.725Z,24.30
2023-05-08T13:30:37.112Z,19.97
2023-05-08T13:33:04.285Z,31.63
2023-05-08T13:35:31.054Z,26.83
2023-05-08T13:37:58.506Z,26.57
2023-05-08T13:40:25.540Z,36.20
2023-05-08T13:42:52.321Z,25.27
2023-05-08T13:45:18.914Z,27.43
2023-05-08T13:47:46.575Z,27.83
2023-05-08T13:50:14.793Z,27.93
2023-05-08T13:52:41.897Z,26.60
2023-05-08T13:55:10.351Z,27.47
2023-05-08T13:57:36.949Z,24.73
2023-05-08T14:00:04.920Z,25.70
2023-05-08T14:02:32.589Z,25.60
2023-05-08T14:04:59.052Z,24.53
2023-05-08T14:07:26.240Z,21.83
2023-05-08T14:09:53.325Z,20.20
2023-05-08T14:12:20.131Z,25.13
2023-05-08T14:14:46.643Z,24.77
2023-05-08T14:17:13.088Z,27.47
2023-05-08T14:19:39.533Z,26.17
2023-05-08T14:22:06.998Z,22.43
2023-05-08T14:24:33.424Z,26.00
2023-05-08T14:27:00.436Z,20.23
2023-05-08T14:29:26.910Z,24.57
2023-05-08T14:31:53.490Z,22.47
2023-05-08T14:34:20.004Z,25.67
2023-05-08T14:36:46.405Z,26.47
2023-05-08T14:39:12.942Z,27.00
2023-05-08T14:41:39.671Z,22.77
2023-05-08T14:44:07.369Z,24.17
2023-05-08T14:46:33.980Z,21.10
2023-05-08T14:49:00.464Z,22.20
2023-05-08T14:51:27.078Z,23.93
2023-05-08T14:53:53.723Z,20.93
2023-05-08T14:56:24.404Z,20.20
2023-05-08T14:58:51.335Z,23.67
2023-05-08T15:01:18.453Z,22.87
2023-05-08T15:03:47.358Z,23.50
2023-05-08T15:06:14.031Z,25.37
2023-05-08T15:08:40.509Z,22.33
2023-05-08T15:11:06.918Z,22.40
2023-05-08T15:13:33.589Z,23.10
2023-05-08T15:16:00.091Z,21.50
2023-05-08T15:18:28.505Z,20.90
2023-05-08T15:20:54.960Z,21.40
2023-05-08T15:23:21.427Z,19.90
2023-05-08T15:25:49.608Z,19.27
2023-05-08T15:28:16.030Z,17.70
2023-05-08T15:30:45.850Z,20.03
2023-05-08T15:33:12.720Z,18.63
2023-05-08T15:35:39.243Z,18.63
2023-05-08T15:38:07.229Z,19.60
2023-05-08T15:40:34.813Z,15.20
2023-05-08T15:43:01.411Z,19.50
2023-05-08T15:45:28.045Z,15.50
2023-05-08T15:47:54.497Z,17.60
2023-05-08T15:50:23.559Z,16.17
2023-05-08T15:52:50.047Z,18.07
2023-05-08T15:55:17.648Z,18.53
2023-05-08T15:57:44.092Z,15.90
2023-05-08T16:00:11.164Z,15.40
2023-05-08T16:02:37.665Z,18.33
2023-05-08T16:05:12.856Z,19.60
2023-05-08T16:07:39.700Z,17.57
2023-05-08T16:10:07.397Z,22.77
2023-05-08T16:12:34.057Z,17.77
2023-05-08T16:15:00.515Z,14.73
2023-05-08T16:17:27.119Z,18.97
2023-05-08T16:19:53.652Z,23.10
2023-05-08T16:22:20.196Z,14.17
2023-05-08T16:24:46.872Z,16.30
2023-05-08T16:27:13.363Z,17.10
2023-05-08T16:29:39.797Z,16.87
2023-05-08T16:32:06.446Z,19.97
2023-05-08T16:34:35.266Z,16.83
2023-05-08T16:37:01.699Z,14.07
2023-05-08T16:39:28.235Z,15.77
2023-05-08T16:41:54.687Z,20.40
2023-05-08T16:44:21.180Z,13.43
2023-05-08T16:46:48.308Z,12.80
2023-05-08T16:49:14.745Z,20.27
2023-05-08T16:51:41.150Z,21.83
2023-05-08T16:54:07.566Z,19.80
2023-05-08T16:56:34.012Z,20.87
2023-05-08T16:59:05.946Z,20.30
2023-05-08T17:01:35.295Z,15.47
2023-05-08T17:04:01.885Z,19.07
2023-05-08T17:06:28.510Z,18.40
2023-05-08T17:08:55.045Z,15.53
2023-05-08T17:11:21.889Z,14.90
2023-05-08T17:13:48.385Z,20.30
2023-05-08T17:16:15.034Z,20.80
2023-05-08T17:18:41.471Z,24.57
2023-05-08T17:21:07.902Z,18.60
2023-05-08T17:23:34.394Z,15.63
2023-05-08T17:26:02.208Z,18.80
2023-05-08T17:28:29.028Z,22.27
2023-05-08T17:30:55.921Z,19.33
2023-05-08T17:33:22.673Z,20.50
2023-05-08T17:35:49.151Z,15.83
2023-05-08T17:38:15.689Z,18.77
2023-05-08T17:40:42.433Z,17.73
2023-05-08T17:43:08.925Z,19.30
2023-05-08T17:45:35.513Z,17.43
2023-05-08T17:48:02.200Z,19.10
2023-05-08T17:50:28.779Z,18.60
2023-05-08T17:52:55.322Z,20.13
2023-05-08T17:55:22.015Z,15.80
2023-05-08T17:57:48.461Z,13.30
2023-05-08T18:00:15.491Z,17.03
2023-05-08T18:02:42.140Z,18.53
2023-05-08T18:05:09.024Z,18.03
2023-05-08T18:07:35.470Z,20.87
2023-05-08T18:10:02.141Z,18.03
2023-05-08T18:12:28.787Z,15.07
2023-05-08T18:14:55.238Z,14.10
2023-05-08T18:17:22.712Z,14.73
2023-05-08T18:19:49.284Z,15.40
2023-05-08T18:22:15.853Z,16.30
2023-05-08T18:24:42.468Z,16.27
2023-05-08T18:27:09.148Z,11.30
2023-05-08T18:29:35.674Z,16.53
2023-05-08T18:32:02.134Z,13.33
2023-05-08T18:34:28.531Z,17.80
2023-05-08T18:36:56.145Z,15.70
2023-05-08T18:39:24.535Z,16.10
2023-05-08T18:41:50.951Z,14.10
2023-05-08T18:44:17.794Z,12.17
2023-05-08T18:46:44.293Z,11.90
2023-05-08T18:49:10.991Z,14.03
2023-05-08T18:51:37.464Z,8.20
2023-05-08T18:54:04.116Z,7.83
2023-05-08T18:56:30.766Z,10.90
2023-05-08T18:58:57.237Z,11.27
2023-05-08T19:01:23.928Z,9.17
2023-05-08T19:03:50.660Z,7.07
2023-05-08T19:06:17.204Z,9.90
2023-05-08T19:08:44.533Z,13.60
2023-05-08T19:11:11.009Z,10.27
2023-05-08T19:13:37.878Z,7.90
2023-05-08T19:16:04.605Z,8.40
2023-05-08T19:18:31.146Z,8.30
2023-05-08T19:20:57.895Z,9.97
2023-05-08T19:23:28.188Z,8.97
2023-05-08T19:25:54.782Z,8.80
2023-05-08T19:28:21.244Z,7.57
2023-05-08T19:30:47.678Z,9.33
2023-05-08T19:33:14.236Z,9.97
2023-05-08T19:35:40.661Z,8.00
2023-05-08T19:38:07.278Z,8.90
2023-05-08T19:40:41.321Z,7.50
2023-05-08T19:43:18.738Z,9.80
2023-05-08T19:45:45.294Z,4.17
2023-05-08T19:48:17.951Z,5.13
2023-05-08T19:50:44.971Z,3.50
2023-05-08T19:53:11.466Z,6.13
2023-05-08T19:55:38.016Z,7.13
2023-05-08T19:58:04.423Z,5.20
2023-05-08T20:00:30.841Z,6.30
2023-05-08T20:02:57.403Z,4.60
2023-05-08T20:05:23.971Z,3.80
2023-05-08T20:07:50.385Z,3.30
2023-05-08T20:10:16.944Z,5.17
2023-05-08T20:12:43.497Z,3.57
2023-05-08T20:15:10.500Z,4.53
2023-05-08T20:17:36.935Z,5.63
2023-05-08T20:20:03.693Z,6.67
2023-05-08T20:22:30.218Z,4.73
2023-05-08T20:24:56.850Z,3.17
2023-05-08T20:27:23.311Z,3.97
2023-05-08T20:29:49.905Z,4.93
2023-05-08T20:32:19.019Z,9.20
2023-05-08T20:34:45.514Z,8.67
2023-05-08T20:37:12.128Z,8.30
2023-05-08T20:39:38.715Z,11.20
2023-05-08T20:42:05.150Z,7.20
2023-05-08T20:44:32.652Z,7.20
2023-05-08T20:46:59.323Z,7.00
2023-05-08T20:49:26.074Z,4.23
2023-05-08T20:51:52.573Z,3.37
2023-05-08T20:54:19.125Z,4.17
2023-05-08T20:56:45.657Z,6.53
2023-05-08T20:59:12.118Z,3.50
2023-05-08T21:01:38.684Z,4.37
2023-05-08T21:04:05.262Z,2.73
2023-05-08T21:06:32.197Z,5.23
2023-05-08T21:08:58.630Z,4.27
2023-05-08T21:11:25.095Z,5.07
2023-05-08T21:13:51.624Z,6.20
2023-05-08T21:16:18.093Z,4.10
2023-05-08T21:18:44.558Z,7.60
2023-05-08T21:21:15.751Z,4.73
2023-05-08T21:23:42.169Z,8.03
2023-05-08T21:26:08.785Z,4.77
2023-05-08T21:28:35.270Z,7.83
2023-05-08T21:31:01.821Z,4.57
2023-05-08T21:33:28.342Z,7.10
2023-05-08T21:35:54.856Z,5.17
2023-05-08T21:38:21.294Z,6.87
2023-05-08T21:40:47.718Z,8.50
2023-05-08T21:43:14.165Z,8.00
2023-05-08T21:45:40.578Z,8.70
2023-05-08T21:48:07.026Z,10.10
2023-05-08T21:50:33.572Z,6.43
2023-05-08T21:53:00.165Z,8.17
2023-05-08T21:55:26.745Z,5.47
2023-05-08T21:57:53.883Z,8.43
2023-05-08T22:00:20.960Z,8.73
2023-05-08T22:02:47.944Z,9.97
2023-05-08T22:05:14.787Z,6.50
2023-05-08T22:07:41.590Z,10.73
2023-05-08T22:10:09.420Z,8.20
2023-05-08T22:12:36.098Z,9.57
2023-05-08T22:15:02.703Z,8.60
2023-05-08T22:17:29.196Z,12.70
2023-05-08T22:19:55.601Z,10.10
2023-05-08T22:22:22.130Z,11.63
2023-05-08T22:24:48.563Z,12.87
2023-05-08T22:27:15.014Z,16.10
2023-05-08T22:29:41.440Z,16.90
2023-05-08T22:32:08.494Z,12.43
2023-05-08T22:34:35.180Z,15.47
2023-05-08T22:37:02.179Z,19.23
2023-05-08T22:39:28.698Z,16.33
2023-05-08T22:41:55.368Z,24.53
2023-05-08T22:44:22.202Z,20.47
2023-05-08T22:46:48.886Z,20.00
2023-05-08T22:49:15.521Z,21.47
2023-05-08T22:51:42.028Z,23.27
2023-05-08T22:54:08.500Z,20.77
2023-05-08T22:56:36.058Z,22.13
2023-05-08T22:59:02.539Z,17.63
2023-05-08T23:01:28.970Z,23.43
2023-05-08T23:03:56.582Z,22.87
2023-05-08T23:06:23.331Z,22.13
2023-05-08T23:08:49.790Z,23.23
2023-05-08T23:11:16.505Z,24.77
2023-05-08T23:13:42.952Z,26.17
2023-05-08T23:16:09.553Z,27.30
2023-05-08T23:18:36.019Z,20.67
2023-05-08T23:21:06.635Z,27.33
2023-05-08T23:23:33.373Z,22.73
2023-05-08T23:26:01.096Z,29.37
2023-05-08T23:28:27.646Z,29.27
2023-05-08T23:30:54.137Z,25.03
2023-05-08T23:33:20.840Z,30.03
2023-05-08T23:35:47.264Z,27.33
2023-05-08T23:38:13.762Z,26.83
2023-05-08T23:40:40.332Z,28.00
2023-05-08T23:43:06.964Z,28.87
2023-05-08T23:45:33.434Z,28.10
2023-05-08T23:47:59.953Z,28.63
2023-05-08T23:50:26.589Z,29.67
2023-05-08T23:52:53.098Z,27.87
2023-05-08T23:55:20.255Z,30.17
2023-05-08T23:57:46.904Z,30.43
